Time;durP1;ratioP1;P1;durP2;ratioP2;P2;SDS_P1;SDS_P2;PMS_P1;PMS_P2;Temp;Humidity;BMP_temperature;BMP_pressure;BME280_temperature;BME280_humidity;BME280_pressure;Samples;Min_cycle;Max_cycle;Signal;HPM_P1;HPM_P2
2023/10/26 00:01:58;;;;;;;1.27;1.23;;;;;;;;;;5057904;28;20225;-83
2023/10/26 00:04:25;;;;;;;1.30;1.23;;;;;;;;;;5071898;28;20201;-83
2023/10/26 00:06:52;;;;;;;1.00;1.00;;;;;;;;;;5070974;28;20240;-82
2023/10/26 00:09:19;;;;;;;1.47;1.37;;;;;;;;;;5070136;28;20232;-83
2023/10/26 00:11:46;;;;;;;2.60;1.87;;;;;;;;;;5057679;28;20246;-83
2023/10/26 00:14:13;;;;;;;1.40;1.30;;;;;;;;;;5064704;28;20208;-82
2023/10/26 00:16:40;;;;;;;1.97;1.60;;;;;;;;;;5071297;28;20233;-83
2023/10/26 00:19:08;;;;;;;2.47;2.00;;;;;;;;;;5069083;28;20228;-83
2023/10/26 00:21:35;;;;;;;1.43;1.40;;;;;;;;;;5060996;28;20230;-82
2023/10/26 00:24:03;;;;;;;1.63;1.53;;;;;;;;;;5058597;28;20705;-82
2023/10/26 00:26:30;;;;;;;1.20;1.20;;;;;;;;;;5059946;28;20605;-82
2023/10/26 00:28:57;;;;;;;1.20;1.20;;;;;;;;;;5048906;28;20258;-83
2023/10/26 00:31:24;;;;;;;1.57;1.47;;;;;;;;;;5051202;28;20229;-83
2023/10/26 00:33:51;;;;;;;1.57;1.50;;;;;;;;;;5067778;28;20209;-83
2023/10/26 00:36:19;;;;;;;1.87;1.40;;;;;;;;;;5066413;28;20237;-83
2023/10/26 00:38:46;;;;;;;1.40;1.30;;;;;;;;;;5056807;28;20213;-83
2023/10/26 00:41:14;;;;;;;1.20;1.20;;;;;;;;;;5059817;28;20721;-83
2023/10/26 00:43:41;;;;;;;1.23;1.23;;;;;;;;;;5056248;28;20233;-83
2023/10/26 00:46:10;;;;;;;1.10;1.10;;;;;;;;;;5070203;28;20715;-83
2023/10/26 00:48:37;;;;;;;1.20;1.20;;;;;;;;;;5071031;28;20237;-83
2023/10/26 00:51:04;;;;;;;2.47;1.40;;;;;;;;;;5053932;28;20236;-83
2023/10/26 00:53:33;;;;;;;1.40;1.40;;;;;;;;;;5062232;28;20210;-83
2023/10/26 00:56:01;;;;;;;2.63;1.27;;;;;;;;;;5057043;28;20238;-83
2023/10/26 00:58:29;;;;;;;1.10;1.10;;;;;;;;;;5071449;28;20205;-83
2023/10/26 01:00:57;;;;;;;1.43;1.33;;;;;;;;;;5031189;28;20238;-83
2023/10/26 01:03:25;;;;;;;2.10;1.50;;;;;;;;;;5036363;28;20206;-82
2023/10/26 01:05:52;;;;;;;1.27;1.27;;;;;;;;;;5038368;28;20237;-83
2023/10/26 01:08:19;;;;;;;1.60;1.40;;;;;;;;;;5044260;28;20234;-82
2023/10/26 01:10:48;;;;;;;1.20;1.20;;;;;;;;;;5045228;28;20255;-83
2023/10/26 01:13:15;;;;;;;1.67;1.57;;;;;;;;;;5052034;28;20198;-84
2023/10/26 01:15:42;;;;;;;1.20;1.20;;;;;;;;;;5050597;28;20226;-83
2023/10/26 01:18:09;;;;;;;1.70;1.60;;;;;;;;;;5046886;28;20218;-83
2023/10/26 01:20:36;;;;;;;2.17;1.37;;;;;;;;;;5061442;28;20592;-83
2023/10/26 01:23:05;;;;;;;2.60;1.40;;;;;;;;;;5066013;28;20207;-82
2023/10/26 01:25:32;;;;;;;2.13;1.30;;;;;;;;;;5063006;28;20723;-82
2023/10/26 01:27:59;;;;;;;1.30;1.30;;;;;;;;;;5050940;28;20233;-83
2023/10/26 01:30:27;;;;;;;1.63;1.53;;;;;;;;;;5057745;28;20236;-83
2023/10/26 01:32:54;;;;;;;1.73;1.63;;;;;;;;;;5063613;28;20201;-83
2023/10/26 01:35:21;;;;;;;1.43;1.43;;;;;;;;;;5053479;28;20202;-82
2023/10/26 01:37:48;;;;;;;5.63;1.40;;;;;;;;;;5071451;28;20202;-83
2023/10/26 01:40:16;;;;;;;1.50;1.40;;;;;;;;;;5060863;28;20225;-82
2023/10/26 01:42:43;;;;;;;2.67;1.70;;;;;;;;;;5065555;28;20281;-82
2023/10/26 01:45:11;;;;;;;1.50;1.50;;;;;;;;;;5059965;28;20205;-82
2023/10/26 01:47:38;;;;;;;1.53;1.43;;;;;;;;;;5070787;28;20221;-83
2023/10/26 01:50:05;;;;;;;1.20;1.20;;;;;;;;;;5059163;28;20222;-83
2023/10/26 01:52:32;;;;;;;1.40;1.30;;;;;;;;;;5054822;28;20205;-83
2023/10/26 01:54:59;;;;;;;1.40;1.40;;;;;;;;;;5070659;28;20213;-83
2023/10/26 01:57:28;;;;;;;1.40;1.40;;;;;;;;;;5070110;28;20938;-83
2023/10/26 01:59:55;;;;;;;1.80;1.40;;;;;;;;;;5069843;28;20228;-82
2023/10/26 02:02:22;;;;;;;1.30;1.30;;;;;;;;;;5054678;28;20662;-82
2023/10/26 02:04:50;;;;;;;1.30;1.30;;;;;;;;;;5070651;28;20236;-82
2023/10/26 02:07:17;;;;;;;2.33;1.50;;;;;;;;;;5069351;28;20230;-83
2023/10/26 02:09:44;;;;;;;1.30;1.30;;;;;;;;;;5069588;28;20603;-83
2023/10/26 02:12:11;;;;;;;1.40;1.30;;;;;;;;;;5063435;28;20305;-83
2023/10/26 02:14:39;;;;;;;1.43;1.43;;;;;;;;;;5067023;28;20691;-83
2023/10/26 02:17:06;;;;;;;1.93;1.83;;;;;;;;;;5053434;28;20241;-83
2023/10/26 02:19:33;;;;;;;1.90;1.63;;;;;;;;;;5050647;28;20706;-83
2023/10/26 02:22:00;;;;;;;1.70;1.60;;;;;;;;;;5063367;28;20229;-83
2023/10/26 02:24:27;;;;;;;1.90;1.80;;;;;;;;;;5073166;28;20202;-83
2023/10/26 02:26:55;;;;;;;1.70;1.60;;;;;;;;;;5068903;28;20233;-83
2023/10/26 02:29:22;;;;;;;3.50;1.43;;;;;;;;;;5073246;28;20229;-83
2023/10/26 02:31:51;;;;;;;1.90;1.80;;;;;;;;;;5072751;28;20608;-83
2023/10/26 02:34:18;;;;;;;1.47;1.47;;;;;;;;;;5057169;28;20202;-83
2023/10/26 02:36:45;;;;;;;1.70;1.60;;;;;;;;;;5056060;28;20233;-83
2023/10/26 02:39:12;;;;;;;1.80;1.70;;;;;;;;;;5063050;28;20244;-83
2023/10/26 02:41:39;;;;;;;1.70;1.60;;;;;;;;;;5071949;28;20236;-83
2023/10/26 02:44:07;;;;;;;1.90;1.80;;;;;;;;;;5057320;28;20202;-83
2023/10/26 02:46:34;;;;;;;1.60;1.50;;;;;;;;;;5063456;28;20730;-83
2023/10/26 02:49:02;;;;;;;1.90;1.80;;;;;;;;;;5073321;28;20237;-83
2023/10/26 02:51:29;;;;;;;1.93;1.83;;;;;;;;;;5064138;28;20226;-83
2023/10/26 02:53:56;;;;;;;2.07;1.97;;;;;;;;;;5053628;28;20206;-83
2023/10/26 02:56:23;;;;;;;1.83;1.73;;;;;;;;;;5053101;28;20225;-83
2023/10/26 02:58:51;;;;;;;1.93;1.83;;;;;;;;;;5053078;28;20684;-83
2023/10/26 03:01:18;;;;;;;2.60;1.80;;;;;;;;;;5053003;28;20728;-83
2023/10/26 03:03:45;;;;;;;2.27;1.70;;;;;;;;;;5054562;28;20202;-83
2023/10/26 03:06:13;;;;;;;1.63;1.53;;;;;;;;;;5052815;28;20237;-83
2023/10/26 03:08:40;;;;;;;1.77;1.67;;;;;;;;;;5064445;28;20221;-83
2023/10/26 03:11:07;;;;;;;1.20;1.20;;;;;;;;;;5072044;28;20229;-83
2023/10/26 03:13:34;;;;;;;2.00;1.90;;;;;;;;;;5062131;28;20206;-83
2023/10/26 03:16:01;;;;;;;1.83;1.73;;;;;;;;;;5052295;28;20707;-83
2023/10/26 03:18:28;;;;;;;1.47;1.43;;;;;;;;;;5052919;28;20206;-83
2023/10/26 03:20:55;;;;;;;1.60;1.50;;;;;;;;;;5055814;28;20248;-83
2023/10/26 03:23:24;;;;;;;1.90;1.80;;;;;;;;;;5051733;28;20206;-83
2023/10/26 03:25:51;;;;;;;1.60;1.60;;;;;;;;;;5048492;28;20692;-83
2023/10/26 03:28:18;;;;;;;2.53;2.30;;;;;;;;;;5052958;28;20226;-83
2023/10/26 03:30:45;;;;;;;2.20;1.80;;;;;;;;;;5053271;28;20234;-83
2023/10/26 03:33:12;;;;;;;1.70;1.60;;;;;;;;;;5052404;28;20224;-83
2023/10/26 03:35:40;;;;;;;1.53;1.50;;;;;;;;;;5052506;28;20329;-83
2023/10/26 03:38:08;;;;;;;1.73;1.63;;;;;;;;;;5056257;28;20213;-82
2023/10/26 03:40:36;;;;;;;1.93;1.83;;;;;;;;;;5062534;28;20229;-83
2023/10/26 03:43:04;;;;;;;2.53;1.50;;;;;;;;;;5067377;28;20206;-83
2023/10/26 03:45:31;;;;;;;1.77;1.67;;;;;;;;;;5072206;28;20225;-83
2023/10/26 03:47:59;;;;;;;2.00;1.53;;;;;;;;;;5064909;28;20261;-83
2023/10/26 03:50:26;;;;;;;3.07;1.80;;;;;;;;;;5052039;28;20258;-82
2023/10/26 03:52:53;;;;;;;2.23;1.67;;;;;;;;;;5053143;28;20198;-83
2023/10/26 03:55:20;;;;;;;2.43;1.83;;;;;;;;;;5052689;28;20212;-83
2023/10/26 03:57:48;;;;;;;4.60;1.80;;;;;;;;;;5055022;28;20202;-82
2023/10/26 04:00:16;;;;;;;1.90;1.80;;;;;;;;;;5056147;28;20229;-83
2023/10/26 04:02:43;;;;;;;1.90;1.80;;;;;;;;;;5058841;28;20217;-83
2023/10/26 04:05:11;;;;;;;1.50;1.50;;;;;;;;;;5058553;28;20209;-84
2023/10/26 04:07:38;;;;;;;1.90;1.80;;;;;;;;;;5060969;28;20210;-83
2023/10/26 04:10:07;;;;;;;1.90;1.67;;;;;;;;;;5058813;28;20261;-82
2023/10/26 04:12:34;;;;;;;5.40;2.00;;;;;;;;;;5079604;28;20189;-81
2023/10/26 04:15:03;;;;;;;1.87;1.60;;;;;;;;;;5071612;28;20198;-82
2023/10/26 04:17:30;;;;;;;2.10;1.73;;;;;;;;;;5072443;28;20220;-82
2023/10/26 04:19:57;;;;;;;1.47;1.47;;;;;;;;;;5052247;28;20715;-84
2023/10/26 04:22:24;;;;;;;1.87;1.77;;;;;;;;;;5051483;28;20747;-82
2023/10/26 04:24:51;;;;;;;1.50;1.43;;;;;;;;;;5052373;28;20208;-82
2023/10/26 04:27:19;;;;;;;1.67;1.60;;;;;;;;;;5051315;28;20241;-82
2023/10/26 04:29:46;;;;;;;1.63;1.57;;;;;;;;;;5048718;28;20230;-82
2023/10/26 04:32:15;;;;;;;1.30;1.30;;;;;;;;;;5071530;28;20629;-82
2023/10/26 04:34:44;;;;;;;1.67;1.57;;;;;;;;;;5074821;28;20205;-82
2023/10/26 04:37:11;;;;;;;1.83;1.73;;;;;;;;;;5076874;28;20254;-83
2023/10/26 04:39:41;;;;;;;1.57;1.50;;;;;;;;;;5074096;28;20226;-82
2023/10/26 04:42:08;;;;;;;1.80;1.70;;;;;;;;;;5064277;28;20229;-82
2023/10/26 04:44:35;;;;;;;1.80;1.67;;;;;;;;;;5071872;28;20679;-81
2023/10/26 04:47:02;;;;;;;1.70;1.70;;;;;;;;;;5070639;28;20308;-82
2023/10/26 04:49:31;;;;;;;1.70;1.60;;;;;;;;;;5071210;28;20726;-82
2023/10/26 04:51:58;;;;;;;1.40;1.40;;;;;;;;;;5070628;28;20244;-82
2023/10/26 04:54:27;;;;;;;2.57;1.77;;;;;;;;;;5071658;28;20201;-83
2023/10/26 04:56:54;;;;;;;2.50;1.73;;;;;;;;;;5070743;28;20715;-83
2023/10/26 04:59:21;;;;;;;1.83;1.73;;;;;;;;;;5071375;28;20221;-83
2023/10/26 05:01:48;;;;;;;1.80;1.70;;;;;;;;;;5070371;28;20232;-83
2023/10/26 05:04:15;;;;;;;1.90;1.80;;;;;;;;;;5066358;28;20210;-83
2023/10/26 05:06:44;;;;;;;1.90;1.80;;;;;;;;;;5049779;28;20238;-83
2023/10/26 05:09:11;;;;;;;1.80;1.70;;;;;;;;;;5050795;28;20234;-83
2023/10/26 05:11:38;;;;;;;1.87;1.77;;;;;;;;;;5050671;28;20237;-84
2023/10/26 05:14:06;;;;;;;1.97;1.87;;;;;;;;;;5051474;28;20210;-85
2023/10/26 05:16:33;;;;;;;1.80;1.70;;;;;;;;;;5050938;28;20313;-84
2023/10/26 05:19:00;;;;;;;1.80;1.70;;;;;;;;;;5050938;28;20229;-84
2023/10/26 05:21:27;;;;;;;2.13;1.97;;;;;;;;;;5050633;28;20234;-83
2023/10/26 05:23:56;;;;;;;3.13;2.10;;;;;;;;;;5050515;28;20206;-83
2023/10/26 05:26:23;;;;;;;1.97;1.87;;;;;;;;;;5050629;28;20237;-83
2023/10/26 05:28:50;;;;;;;1.90;1.80;;;;;;;;;;5050850;28;20230;-83
2023/10/26 05:31:17;;;;;;;3.13;1.70;;;;;;;;;;5050168;28;20245;-83
2023/10/26 05:33:44;;;;;;;1.77;1.70;;;;;;;;;;5045891;28;20245;-84
2023/10/26 05:36:11;;;;;;;1.60;1.60;;;;;;;;;;5049951;28;20221;-82
2023/10/26 05:38:38;;;;;;;2.10;1.80;;;;;;;;;;5050475;28;20707;-83
2023/10/26 05:41:07;;;;;;;2.77;2.07;;;;;;;;;;5050074;28;20229;-82
2023/10/26 05:43:34;;;;;;;1.90;1.80;;;;;;;;;;5050624;28;20206;-83
2023/10/26 05:46:03;;;;;;;1.90;1.80;;;;;;;;;;5050510;28;20237;-83
2023/10/26 05:48:31;;;;;;;3.03;1.90;;;;;;;;;;5054690;28;20233;-83
2023/10/26 05:50:59;;;;;;;2.03;1.93;;;;;;;;;;5064987;23;20229;-76
2023/10/26 05:53:26;;;;;;;1.93;1.73;;;;;;;;;;5034487;28;20264;-76
2023/10/26 05:55:57;;;;;;;2.20;2.03;;;;;;;;;;5033837;28;20237;-76
2023/10/26 05:58:26;;;;;;;4.00;2.37;;;;;;;;;;5034276;28;20210;-78
2023/10/26 06:00:53;;;;;;;2.00;1.90;;;;;;;;;;5033661;28;20261;-78
2023/10/26 06:03:20;;;;;;;1.97;1.87;;;;;;;;;;5034141;28;20217;-78
2023/10/26 06:05:48;;;;;;;2.10;2.00;;;;;;;;;;5033936;28;20245;-78
2023/10/26 06:08:15;;;;;;;1.87;1.77;;;;;;;;;;5025418;28;20246;-77
2023/10/26 06:10:42;;;;;;;3.43;2.00;;;;;;;;;;5032961;28;20235;-77
2023/10/26 06:13:09;;;;;;;1.73;1.70;;;;;;;;;;5032872;28;20214;-78
2023/10/26 06:15:38;;;;;;;3.07;1.80;;;;;;;;;;5033042;28;20597;-78
2023/10/26 06:18:05;;;;;;;2.10;1.90;;;;;;;;;;5033029;28;20210;-77
2023/10/26 06:20:32;;;;;;;2.10;2.00;;;;;;;;;;5032897;28;20230;-78
2023/10/26 06:22:59;;;;;;;2.00;1.90;;;;;;;;;;5032781;28;20214;-77
2023/10/26 06:25:28;;;;;;;1.77;1.67;;;;;;;;;;5032551;28;20230;-77
2023/10/26 06:27:55;;;;;;;2.07;1.97;;;;;;;;;;5033059;28;20223;-77
2023/10/26 06:30:22;;;;;;;2.27;2.13;;;;;;;;;;5032327;28;21313;-78
2023/10/26 06:32:51;;;;;;;2.43;1.90;;;;;;;;;;5032960;28;20727;-77
2023/10/26 06:35:18;;;;;;;2.07;1.97;;;;;;;;;;5032361;28;20708;-78
2023/10/26 06:37:45;;;;;;;2.10;2.00;;;;;;;;;;5033133;28;20215;-77
2023/10/26 06:40:12;;;;;;;2.23;2.10;;;;;;;;;;5031916;28;20236;-78
2023/10/26 06:42:39;;;;;;;2.30;2.10;;;;;;;;;;5032652;28;20271;-77
2023/10/26 06:45:08;;;;;;;3.10;2.30;;;;;;;;;;5032089;28;20233;-78
2023/10/26 06:47:35;;;;;;;1.90;1.80;;;;;;;;;;5032999;28;20209;-77
2023/10/26 06:50:03;;;;;;;2.30;2.10;;;;;;;;;;5032294;28;20227;-78
2023/10/26 06:52:30;;;;;;;2.13;2.03;;;;;;;;;;5052252;28;20234;-77
2023/10/26 06:54:58;;;;;;;2.30;2.10;;;;;;;;;;5052294;28;20224;-77
2023/10/26 06:57:25;;;;;;;2.30;2.20;;;;;;;;;;5052149;28;20812;-77
2023/10/26 06:59:53;;;;;;;2.47;2.37;;;;;;;;;;5052058;28;20214;-76
2023/10/26 07:02:20;;;;;;;2.10;2.00;;;;;;;;;;5051667;28;20990;-76
2023/10/26 07:04:47;;;;;;;2.57;2.37;;;;;;;;;;5052212;28;20213;-75
2023/10/26 07:07:15;;;;;;;2.23;1.97;;;;;;;;;;5047265;28;20226;-76
2023/10/26 07:09:42;;;;;;;2.00;1.90;;;;;;;;;;5051972;28;20821;-76
2023/10/26 07:12:10;;;;;;;4.17;1.80;;;;;;;;;;5049207;28;20254;-77
2023/10/26 07:14:39;;;;;;;2.50;2.00;;;;;;;;;;5051169;28;20210;-77
2023/10/26 07:17:06;;;;;;;2.40;2.20;;;;;;;;;;5050796;28;20232;-78
2023/10/26 07:19:33;;;;;;;3.43;2.37;;;;;;;;;;5051872;28;20217;-78
2023/10/26 07:22:00;;;;;;;2.50;2.23;;;;;;;;;;5051039;28;20233;-76
2023/10/26 07:24:29;;;;;;;2.70;2.47;;;;;;;;;;5051974;28;20220;-78
2023/10/26 07:26:56;;;;;;;2.63;2.43;;;;;;;;;;5050439;28;20239;-78
2023/10/26 07:29:23;;;;;;;2.07;1.97;;;;;;;;;;5049123;28;20222;-79
2023/10/26 07:31:50;;;;;;;2.10;2.00;;;;;;;;;;5051112;28;20230;-74
2023/10/26 07:34:17;;;;;;;2.50;2.30;;;;;;;;;;5050411;28;20225;-75
2023/10/26 07:36:45;;;;;;;2.30;2.20;;;;;;;;;;5051368;28;20241;-75
2023/10/26 07:39:12;;;;;;;2.80;2.60;;;;;;;;;;5051225;28;20234;-75
2023/10/26 07:41:41;;;;;;;4.37;3.07;;;;;;;;;;5051158;28;20230;-76
2023/10/26 07:44:09;;;;;;;2.73;2.53;;;;;;;;;;5050447;28;20218;-75
2023/10/26 07:46:36;;;;;;;2.40;2.20;;;;;;;;;;5050627;28;20263;-76
2023/10/26 07:49:04;;;;;;;2.67;2.47;;;;;;;;;;5051186;28;20221;-79
2023/10/26 07:51:31;;;;;;;2.40;2.27;;;;;;;;;;5051095;28;20237;-76
2023/10/26 07:53:58;;;;;;;2.53;2.33;;;;;;;;;;5051050;28;20217;-76
2023/10/26 07:56:25;;;;;;;2.23;2.13;;;;;;;;;;5050456;28;20253;-76
2023/10/26 07:58:54;;;;;;;2.47;2.10;;;;;;;;;;5051475;28;20214;-76
2023/10/26 08:01:21;;;;;;;2.13;2.03;;;;;;;;;;5042789;28;20774;-76
2023/10/26 08:03:49;;;;;;;2.60;2.40;;;;;;;;;;5046985;28;20214;-75
2023/10/26 08:06:16;;;;;;;2.60;2.40;;;;;;;;;;5050256;28;20245;-76
2023/10/26 08:08:43;;;;;;;5.87;2.60;;;;;;;;;;5050989;28;20214;-76
2023/10/26 08:11:11;;;;;;;2.43;2.20;;;;;;;;;;5049892;28;20307;-76
2023/10/26 08:13:38;;;;;;;2.23;2.13;;;;;;;;;;5050913;28;20252;-76
2023/10/26 08:16:07;;;;;;;2.60;2.40;;;;;;;;;;5049871;28;20233;-76
2023/10/26 08:18:34;;;;;;;2.27;2.17;;;;;;;;;;5051032;28;20214;-76
2023/10/26 08:21:03;;;;;;;2.33;2.10;;;;;;;;;;5050004;28;20714;-76
2023/10/26 08:23:31;;;;;;;2.30;2.20;;;;;;;;;;5050857;28;20283;-76
2023/10/26 08:25:58;;;;;;;2.77;2.00;;;;;;;;;;5050053;28;20272;-75
2023/10/26 08:28:25;;;;;;;1.90;1.80;;;;;;;;;;5043151;28;20206;-77
2023/10/26 08:30:55;;;;;;;2.17;2.00;;;;;;;;;;5050295;28;20303;-78
2023/10/26 08:33:24;;;;;;;2.50;2.30;;;;;;;;;;5050465;28;20232;-78
2023/10/26 08:35:51;;;;;;;2.80;2.57;;;;;;;;;;5050291;28;20233;-78
2023/10/26 08:38:18;;;;;;;2.23;2.07;;;;;;;;;;5050041;28;20205;-77
2023/10/26 08:40:51;;;;;;;4.03;1.90;;;;;;;;;;5041785;28;20229;-76
2023/10/26 08:43:18;;;;;;;1.90;1.80;;;;;;;;;;5050101;28;20198;-76
2023/10/26 08:45:46;;;;;;;2.20;2.10;;;;;;;;;;5050351;28;20599;-77
2023/10/26 08:48:16;;;;;;;1.70;1.60;;;;;;;;;;5049796;28;20229;-77
2023/10/26 08:50:44;;;;;;;1.80;1.70;;;;;;;;;;5045263;28;20238;-77
2023/10/26 08:53:11;;;;;;;1.73;1.63;;;;;;;;;;5046725;28;20578;-76
2023/10/26 08:55:39;;;;;;;1.60;1.60;;;;;;;;;;5049230;28;20619;-76
2023/10/26 08:58:06;;;;;;;2.00;1.90;;;;;;;;;;5048878;28;20214;-76
2023/10/26 09:00:33;;;;;;;2.17;2.00;;;;;;;;;;5049331;28;20253;-76
2023/10/26 09:03:00;;;;;;;1.90;1.80;;;;;;;;;;5049304;28;20740;-77
2023/10/26 09:05:28;;;;;;;5.43;1.97;;;;;;;;;;5049335;28;20241;-77
2023/10/26 09:07:56;;;;;;;1.73;1.70;;;;;;;;;;5049207;28;20210;-77
2023/10/26 09:10:30;;;;;;;2.20;2.10;;;;;;;;;;5047682;28;20238;-77
2023/10/26 09:13:01;;;;;;;3.00;2.20;;;;;;;;;;5049647;28;20210;-77
2023/10/26 09:15:28;;;;;;;1.83;1.73;;;;;;;;;;5040723;28;20715;-77
2023/10/26 09:17:57;;;;;;;2.50;2.30;;;;;;;;;;5049283;28;20218;-77
2023/10/26 09:20:25;;;;;;;5.50;2.10;;;;;;;;;;5040581;28;20229;-77
2023/10/26 09:22:52;;;;;;;2.03;1.93;;;;;;;;;;5053091;28;20234;-77
2023/10/26 09:25:21;;;;;;;2.50;2.00;;;;;;;;;;5052677;28;20458;-77
2023/10/26 09:27:48;;;;;;;1.70;1.60;;;;;;;;;;5053111;28;20680;-77
2023/10/26 09:30:28;;;;;;;1.90;1.80;;;;;;;;;;5052360;28;20222;-77
2023/10/26 09:32:57;;;;;;;1.80;1.70;;;;;;;;;;5053737;28;20675;-77
2023/10/26 09:35:28;;;;;;;4.83;1.73;;;;;;;;;;5053273;28;20699;-77
2023/10/26 09:37:55;;;;;;;1.80;1.70;;;;;;;;;;5052304;28;20293;-75
2023/10/26 09:40:24;;;;;;;2.43;1.53;;;;;;;;;;5053002;28;20616;-75
2023/10/26 09:42:51;;;;;;;1.53;1.47;;;;;;;;;;5053975;28;20699;-75
2023/10/26 09:45:19;;;;;;;2.63;1.57;;;;;;;;;;5044887;28;20214;-75
2023/10/26 09:47:46;;;;;;;1.83;1.53;;;;;;;;;;5053718;28;20212;-75
2023/10/26 09:50:14;;;;;;;1.73;1.63;;;;;;;;;;5052682;28;20226;-76
2023/10/26 09:52:42;;;;;;;1.87;1.70;;;;;;;;;;5048047;28;20258;-76
2023/10/26 09:55:10;;;;;;;1.63;1.53;;;;;;;;;;5050574;28;20202;-76
2023/10/26 09:57:40;;;;;;;1.90;1.80;;;;;;;;;;5053285;28;20210;-75
2023/10/26 10:00:10;;;;;;;1.50;1.40;;;;;;;;;;5052714;28;20216;-75
2023/10/26 10:02:37;;;;;;;1.60;1.50;;;;;;;;;;5053561;28;20230;-75
2023/10/26 10:05:05;;;;;;;5.87;1.83;;;;;;;;;;5052608;28;20202;-76
2023/10/26 10:07:45;;;;;;;1.50;1.40;;;;;;;;;;5041680;28;20214;-75
2023/10/26 10:10:12;;;;;;;2.33;2.10;;;;;;;;;;5048808;28;20768;-75
2023/10/26 10:12:42;;;;;;;1.80;1.70;;;;;;;;;;5046852;28;20226;-75
2023/10/26 10:15:11;;;;;;;1.80;1.70;;;;;;;;;;5052555;28;20741;-76
2023/10/26 10:18:12;;;;;;;1.80;1.70;;;;;;;;;;5053514;28;20218;-75
2023/10/26 10:20:40;;;;;;;1.73;1.63;;;;;;;;;;5044221;28;20226;-76
2023/10/26 10:23:07;;;;;;;1.80;1.70;;;;;;;;;;5052729;28;20769;-76
2023/10/26 10:25:52;;;;;;;2.10;1.90;;;;;;;;;;5052758;28;20711;-76
2023/10/26 10:28:21;;;;;;;2.27;1.70;;;;;;;;;;5037414;28;20237;-77
2023/10/26 10:30:50;;;;;;;2.30;1.70;;;;;;;;;;5052257;28;20612;-77
2023/10/26 10:33:22;;;;;;;1.87;1.77;;;;;;;;;;5050690;28;20301;-76
2023/10/26 10:35:52;;;;;;;2.10;1.90;;;;;;;;;;5052441;28;20699;-76
2023/10/26 10:38:21;;;;;;;1.53;1.43;;;;;;;;;;5052350;28;20703;-76
2023/10/26 10:41:04;;;;;;;2.00;1.90;;;;;;;;;;5052497;28;20238;-76
2023/10/26 10:43:33;;;;;;;1.80;1.70;;;;;;;;;;5052259;28;20234;-76
2023/10/26 10:46:10;;;;;;;1.90;1.80;;;;;;;;;;5052321;28;20230;-76
2023/10/26 10:48:37;;;;;;;2.87;2.17;;;;;;;;;;5045319;28;20205;-76
2023/10/26 10:51:05;;;;;;;1.70;1.60;;;;;;;;;;5049496;28;20226;-77
2023/10/26 10:53:32;;;;;;;1.93;1.83;;;;;;;;;;5051622;28;20238;-77
2023/10/26 10:55:59;;;;;;;2.30;2.03;;;;;;;;;;5051746;28;20226;-77
2023/10/26 10:58:37;;;;;;;1.80;1.70;;;;;;;;;;5052180;28;20213;-77
2023/10/26 11:01:05;;;;;;;1.70;1.60;;;;;;;;;;5051042;28;20728;-77
2023/10/26 11:03:32;;;;;;;3.30;1.80;;;;;;;;;;5044056;28;20213;-77
2023/10/26 11:05:59;;;;;;;4.40;1.90;;;;;;;;;;5044457;28;20234;-77
2023/10/26 11:08:26;;;;;;;1.47;1.47;;;;;;;;;;5050664;28;20213;-77
2023/10/26 11:10:54;;;;;;;3.30;1.90;;;;;;;;;;5051112;28;20229;-77
2023/10/26 11:13:21;;;;;;;2.00;1.90;;;;;;;;;;5046031;28;20214;-77
2023/10/26 11:15:48;;;;;;;2.53;2.33;;;;;;;;;;5051967;28;20237;-77
2023/10/26 11:18:17;;;;;;;2.33;2.13;;;;;;;;;;5051753;28;20256;-77
2023/10/26 11:20:45;;;;;;;2.27;2.10;;;;;;;;;;5051373;28;20237;-77
2023/10/26 11:23:13;;;;;;;2.30;2.10;;;;;;;;;;5051912;28;20611;-77
2023/10/26 11:25:40;;;;;;;2.43;1.77;;;;;;;;;;5051900;28;20230;-77
2023/10/26 11:28:08;;;;;;;3.00;2.17;;;;;;;;;;5051763;28;20210;-77
2023/10/26 11:30:46;;;;;;;2.20;1.97;;;;;;;;;;5050912;28;20725;-77
2023/10/26 11:33:28;;;;;;;2.70;2.50;;;;;;;;;;5051524;28;20209;-77
2023/10/26 11:35:56;;;;;;;2.33;2.13;;;;;;;;;;5051428;28;20698;-77
2023/10/26 11:38:23;;;;;;;2.47;2.27;;;;;;;;;;5051234;28;20230;-77
2023/10/26 11:40:51;;;;;;;2.40;2.20;;;;;;;;;;5051026;28;20241;-77
2023/10/26 11:43:31;;;;;;;2.20;2.00;;;;;;;;;;5050964;28;20692;-77
2023/10/26 11:45:59;;;;;;;3.47;2.53;;;;;;;;;;5050806;28;20248;-77
2023/10/26 11:48:27;;;;;;;2.80;2.60;;;;;;;;;;5051182;28;20213;-77
2023/10/26 11:50:54;;;;;;;2.50;2.30;;;;;;;;;;5050745;28;20233;-77
2023/10/26 11:53:23;;;;;;;2.93;2.33;;;;;;;;;;5051118;28;20301;-77
2023/10/26 11:55:50;;;;;;;2.70;2.37;;;;;;;;;;5045975;28;20221;-77
2023/10/26 11:58:18;;;;;;;2.07;1.97;;;;;;;;;;5051137;28;20230;-77
2023/10/26 12:00:45;;;;;;;2.27;2.10;;;;;;;;;;5050542;28;20230;-77
2023/10/26 12:03:12;;;;;;;2.53;2.33;;;;;;;;;;5050959;28;20209;-77
2023/10/26 12:05:39;;;;;;;2.33;1.87;;;;;;;;;;5050633;28;20233;-77
2023/10/26 12:08:07;;;;;;;2.63;2.30;;;;;;;;;;5045403;28;20217;-77
2023/10/26 12:10:35;;;;;;;2.63;2.40;;;;;;;;;;5041842;28;20237;-77
2023/10/26 12:13:02;;;;;;;2.60;2.17;;;;;;;;;;5051012;28;20206;-77
2023/10/26 12:15:30;;;;;;;2.57;2.37;;;;;;;;;;5048461;28;20238;-78
2023/10/26 12:17:57;;;;;;;2.53;2.17;;;;;;;;;;5051130;28;20264;-77
2023/10/26 12:20:24;;;;;;;2.40;2.20;;;;;;;;;;5049032;28;20236;-77
2023/10/26 12:22:52;;;;;;;3.03;2.00;;;;;;;;;;5050778;28;20699;-77
2023/10/26 12:25:19;;;;;;;2.23;2.03;;;;;;;;;;5048423;28;20681;-77
2023/10/26 12:27:47;;;;;;;1.93;1.80;;;;;;;;;;5049346;28;20205;-77
2023/10/26 12:30:15;;;;;;;2.97;1.97;;;;;;;;;;5049258;28;20210;-77
2023/10/26 12:32:42;;;;;;;1.90;1.80;;;;;;;;;;5050558;28;20230;-77
2023/10/26 12:35:12;;;;;;;1.80;1.70;;;;;;;;;;5050176;28;20288;-78
2023/10/26 12:37:43;;;;;;;2.33;2.13;;;;;;;;;;5039689;28;20221;-80
2023/10/26 12:40:10;;;;;;;2.00;1.80;;;;;;;;;;5049168;28;20256;-79
2023/10/26 12:42:39;;;;;;;2.00;1.90;;;;;;;;;;5050239;28;20237;-78
2023/10/26 12:45:08;;;;;;;2.23;2.03;;;;;;;;;;5050050;28;20214;-79
2023/10/26 12:47:35;;;;;;;3.33;1.90;;;;;;;;;;5050246;28;20206;-78
2023/10/26 12:50:02;;;;;;;2.43;2.00;;;;;;;;;;5050694;28;20246;-80
2023/10/26 12:52:30;;;;;;;2.97;2.10;;;;;;;;;;5048755;28;20261;-79
2023/10/26 12:54:57;;;;;;;1.93;1.70;;;;;;;;;;5050632;28;20217;-78
2023/10/26 12:57:24;;;;;;;2.33;2.13;;;;;;;;;;5049722;28;20230;-79
2023/10/26 12:59:51;;;;;;;2.10;1.90;;;;;;;;;;5049564;28;20270;-79
2023/10/26 13:02:20;;;;;;;1.97;1.87;;;;;;;;;;5049214;28;20233;-79
2023/10/26 13:04:47;;;;;;;2.63;2.43;;;;;;;;;;5050365;28;20212;-78
2023/10/26 13:07:14;;;;;;;2.50;2.30;;;;;;;;;;5049950;28;20226;-78
2023/10/26 13:09:42;;;;;;;2.60;2.40;;;;;;;;;;5044167;28;20221;-78
2023/10/26 13:12:09;;;;;;;2.47;2.30;;;;;;;;;;5048825;28;20237;-78
2023/10/26 13:14:36;;;;;;;2.60;2.13;;;;;;;;;;5049994;28;20735;-78
2023/10/26 13:17:03;;;;;;;2.20;2.10;;;;;;;;;;5049606;28;20857;-78
2023/10/26 13:19:32;;;;;;;2.27;2.07;;;;;;;;;;5050135;28;20301;-78
2023/10/26 13:21:59;;;;;;;2.40;2.20;;;;;;;;;;5049153;28;20225;-78
2023/10/26 13:24:26;;;;;;;2.83;2.50;;;;;;;;;;5050012;28;20302;-78
2023/10/26 13:26:53;;;;;;;3.10;2.10;;;;;;;;;;5041554;28;20664;-78
2023/10/26 13:29:20;;;;;;;2.80;2.10;;;;;;;;;;5044945;28;20226;-78
2023/10/26 13:31:47;;;;;;;2.40;2.20;;;;;;;;;;5048965;28;20225;-78
2023/10/26 13:34:15;;;;;;;1.80;1.70;;;;;;;;;;5049189;28;20293;-78
2023/10/26 13:36:43;;;;;;;1.70;1.60;;;;;;;;;;5049678;28;20225;-78
2023/10/26 13:39:10;;;;;;;1.73;1.63;;;;;;;;;;5049954;28;20676;-78
2023/10/26 13:41:37;;;;;;;1.50;1.50;;;;;;;;;;5048238;28;20313;-78
2023/10/26 13:44:04;;;;;;;1.83;1.73;;;;;;;;;;5049661;28;20206;-78
2023/10/26 13:46:34;;;;;;;1.47;1.43;;;;;;;;;;5046850;28;20240;-78
2023/10/26 13:49:02;;;;;;;1.50;1.40;;;;;;;;;;5044717;28;20272;-78
2023/10/26 13:51:29;;;;;;;4.27;1.80;;;;;;;;;;5048053;28;20238;-78
2023/10/26 13:53:57;;;;;;;2.47;1.77;;;;;;;;;;5049805;28;20210;-78
2023/10/26 13:56:24;;;;;;;3.57;2.20;;;;;;;;;;5046340;28;20230;-77
2023/10/26 13:58:51;;;;;;;2.77;1.73;;;;;;;;;;5050141;28;20202;-78
2023/10/26 14:01:18;;;;;;;2.00;1.80;;;;;;;;;;5048354;28;20237;-78
2023/10/26 14:03:45;;;;;;;2.07;1.97;;;;;;;;;;5049407;28;20207;-78
2023/10/26 14:06:13;;;;;;;1.47;1.37;;;;;;;;;;5049099;28;20226;-78
2023/10/26 14:08:40;;;;;;;1.30;1.30;;;;;;;;;;5052120;28;20213;-78
2023/10/26 14:11:08;;;;;;;1.50;1.40;;;;;;;;;;5046674;28;20241;-75
2023/10/26 14:13:35;;;;;;;1.20;1.20;;;;;;;;;;5043534;28;20211;-78
2023/10/26 14:16:03;;;;;;;2.43;1.40;;;;;;;;;;5052681;28;20233;-78
2023/10/26 14:18:30;;;;;;;1.20;1.20;;;;;;;;;;5043244;28;20260;-78
2023/10/26 14:20:57;;;;;;;1.70;1.23;;;;;;;;;;5052689;28;20236;-78
2023/10/26 14:23:24;;;;;;;1.53;1.47;;;;;;;;;;5052602;28;20209;-77
2023/10/26 14:25:51;;;;;;;1.70;1.60;;;;;;;;;;5052781;28;20706;-78
2023/10/26 14:28:20;;;;;;;5.07;1.53;;;;;;;;;;5047917;28;20264;-79
2023/10/26 14:30:47;;;;;;;1.50;1.40;;;;;;;;;;5052554;28;20230;-77
2023/10/26 14:33:14;;;;;;;1.60;1.50;;;;;;;;;;5052508;28;20202;-77
2023/10/26 14:35:41;;;;;;;1.50;1.40;;;;;;;;;;5052313;28;20230;-77
2023/10/26 14:38:09;;;;;;;3.13;1.40;;;;;;;;;;5052968;28;20226;-77
2023/10/26 14:40:37;;;;;;;1.27;1.27;;;;;;;;;;5051938;28;20314;-79
2023/10/26 14:43:04;;;;;;;5.57;1.83;;;;;;;;;;5052368;28;20202;-77
2023/10/26 14:45:33;;;;;;;1.60;1.50;;;;;;;;;;5052083;28;20230;-77
2023/10/26 14:48:01;;;;;;;1.40;1.40;;;;;;;;;;5047148;28;20202;-78